createdAt,value
2023-05-24T00:04:49.800Z,16.97
2023-05-24T00:15:11.344Z,16.88
2023-05-24T00:25:32.459Z,16.81
2023-05-24T00:35:56.920Z,16.72
2023-05-24T00:46:21.033Z,16.68
2023-05-24T00:56:45.352Z,16.60
2023-05-24T01:07:31.190Z,16.53
2023-05-24T01:18:06.223Z,16.49
2023-05-24T01:28:27.917Z,16.40
2023-05-24T01:38:49.743Z,16.35
2023-05-24T01:49:30.261Z,16.29
2023-05-24T01:59:53.406Z,16.22
2023-05-24T02:10:14.569Z,16.13
2023-05-24T02:20:38.753Z,16.07
2023-05-24T02:31:00.125Z,15.97
2023-05-24T02:41:22.433Z,15.90
2023-05-24T02:51:43.677Z,15.83
2023-05-24T03:02:05.622Z,15.81
2023-05-24T03:12:27.480Z,15.75
2023-05-24T03:22:48.806Z,15.72
2023-05-24T03:33:10.367Z,15.68
2023-05-24T03:43:31.633Z,15.63
2023-05-24T03:53:57.522Z,15.57
2023-05-24T04:04:20.197Z,15.52
2023-05-24T04:14:41.721Z,15.48
2023-05-24T04:25:04.435Z,15.40
2023-05-24T04:35:26.590Z,15.37
2023-05-24T04:45:48.662Z,15.33
2023-05-24T04:56:10.146Z,15.31
2023-05-24T05:06:32.209Z,15.28
2023-05-24T05:16:53.475Z,15.25
2023-05-24T05:27:14.602Z,15.24
2023-05-24T05:37:36.126Z,15.24
2023-05-24T05:47:57.278Z,15.24
2023-05-24T05:58:18.806Z,15.20
2023-05-24T06:08:41.105Z,15.22
2023-05-24T06:19:06.381Z,15.25
2023-05-24T06:29:27.833Z,15.26
2023-05-24T06:39:49.308Z,15.31
2023-05-24T06:50:10.681Z,15.34
2023-05-24T07:00:32.369Z,15.38
2023-05-24T07:10:54.476Z,15.46
2023-05-24T07:21:16.149Z,15.53
2023-05-24T07:31:38.422Z,15.54
2023-05-24T07:41:59.584Z,15.57
2023-05-24T07:52:21.989Z,15.60
2023-05-24T08:02:44.495Z,15.61
2023-05-24T08:13:06.302Z,15.59
2023-05-24T08:23:30.182Z,15.59
2023-05-24T08:33:51.567Z,15.59
2023-05-24T08:44:13.472Z,15.61
2023-05-24T08:54:38.042Z,15.61
2023-05-24T09:05:00.431Z,15.61
2023-05-24T09:15:21.606Z,15.62
2023-05-24T09:25:47.002Z,15.64
2023-05-24T09:36:08.972Z,15.66
2023-05-24T09:46:30.332Z,15.68
2023-05-24T09:56:51.813Z,15.72
2023-05-24T10:07:13.030Z,15.77
2023-05-24T10:17:34.344Z,15.81
2023-05-24T10:28:07.961Z,15.85
2023-05-24T10:38:30.005Z,15.92
2023-05-24T10:49:01.367Z,16.06
2023-05-24T10:59:38.344Z,16.13
2023-05-24T11:10:07.318Z,16.27
2023-05-24T11:20:28.479Z,16.40
2023-05-24T11:30:51.100Z,16.55
2023-05-24T11:41:12.592Z,16.73
2023-05-24T11:51:36.055Z,16.88
2023-05-24T12:02:02.067Z,16.96
2023-05-24T12:12:30.496Z,17.02
2023-05-24T12:22:56.332Z,17.09
2023-05-24T12:33:19.722Z,17.22
2023-05-24T12:43:41.096Z,17.35
2023-05-24T12:54:05.044Z,17.55
2023-05-24T13:04:31.888Z,17.70
2023-05-24T13:14:54.321Z,17.76
2023-05-24T13:25:16.948Z,17.77
2023-05-24T13:35:38.448Z,17.75
2023-05-24T13:46:00.027Z,17.74
2023-05-24T13:56:22.567Z,17.76
2023-05-24T14:06:43.769Z,17.76
2023-05-24T14:17:05.070Z,17.77
2023-05-24T14:27:26.645Z,17.78
2023-05-24T14:37:47.971Z,17.79
2023-05-24T14:48:13.495Z,17.81
2023-05-24T14:58:34.922Z,17.79
2023-05-24T15:08:56.798Z,17.75
2023-05-24T15:19:18.127Z,17.71
2023-05-24T15:29:39.798Z,17.71
2023-05-24T15:40:01.026Z,17.75
2023-05-24T15:50:31.640Z,17.77
2023-05-24T16:00:57.614Z,17.76
2023-05-24T16:11:21.553Z,17.73
2023-05-24T16:21:43.418Z,17.65
2023-05-24T16:32:04.844Z,17.57
2023-05-24T16:42:26.721Z,17.48
2023-05-24T16:52:48.647Z,17.41
2023-05-24T17:03:10.536Z,17.34
2023-05-24T17:13:32.277Z,17.28
2023-05-24T17:23:53.902Z,17.21
2023-05-24T17:34:16.802Z,17.12
2023-05-24T17:44:38.051Z,17.03
2023-05-24T17:54:59.445Z,16.93
2023-05-24T18:05:20.723Z,16.84
2023-05-24T18:15:44.394Z,16.72
2023-05-24T18:26:10.567Z,16.63
2023-05-24T18:36:33.300Z,16.54
2023-05-24T18:46:56.418Z,16.48
2023-05-24T18:57:17.719Z,16.39
2023-05-24T19:07:39.422Z,16.34
2023-05-24T19:18:02.018Z,16.27
2023-05-24T19:28:24.341Z,16.21
2023-05-24T19:38:45.301Z,16.16
2023-05-24T19:49:06.484Z,16.11
2023-05-24T19:59:28.177Z,16.04
2023-05-24T20:09:50.139Z,15.97
2023-05-24T20:20:12.119Z,15.91
2023-05-24T20:30:34.017Z,15.85
2023-05-24T20:40:55.852Z,15.78
2023-05-24T20:51:17.048Z,15.70
2023-05-24T21:01:38.628Z,15.64
2023-05-24T21:12:00.067Z,15.58
2023-05-24T21:22:21.597Z,15.53
2023-05-24T21:32:43.091Z,15.44
2023-05-24T21:43:05.510Z,15.39
2023-05-24T21:53:26.691Z,15.32
2023-05-24T22:03:47.935Z,15.25
2023-05-24T22:14:09.194Z,15.19
2023-05-24T22:24:31.045Z,15.14
2023-05-24T22:34:52.622Z,15.06
2023-05-24T22:45:14.314Z,15.00
2023-05-24T22:55:35.852Z,14.93
2023-05-24T23:06:04.106Z,14.86
2023-05-24T23:16:29.022Z,14.78
2023-05-24T23:26:50.674Z,14.67
2023-05-24T23:37:12.116Z,14.60
2023-05-24T23:47:33.444Z,14.50
2023-05-24T23:57:54.784Z,14.43
